<?xml version="1.0" encoding="UTF-8" standalone="no" ?>
<gpx xmlns="http://www.topografix.com/GPX/1/1" xmlns:xsi="http://www.w3.org/2001/XMLSchema-instance" xsi:schemaLocation="http://www.topografix.com/GPX/1/1 http://www.topografix.com/GPX/1/1/gpx.xsd" version="1.1" creator="VisuGPX - https://www.visugpx.com">
  <metadata>
    <name>Chateaudouble pont des Sarrasins</name>
    <desc><![CDATA[File with points/tracks from Locus Map/3.27.1]]></desc>
  </metadata>
  <trk>
    <name><![CDATA[F26120 Chateaudouble pont des Sarrasins AM JR MR JPR AMF]]></name>
    <trkseg>
      <trkpt lat="44.89932" lon="5.09504">
        <ele>379.79</ele>
        <time>2017-11-15T12:07:39.000Z</time>
      </trkpt>
      <trkpt lat="44.89947" lon="5.0952">
        <ele>381.24</ele>
        <time>2017-11-15T12:09:37.000Z</time>
      </trkpt>
      <trkpt lat="44.89946" lon="5.09548">
        <ele>382.98</ele>
        <time>2017-11-15T12:10:03.000Z</time>
      </trkpt>
      <trkpt lat="44.89943" lon="5.09573">
        <ele>384.97</ele>
        <time>2017-11-15T12:10:22.000Z</time>
      </trkpt>
      <trkpt lat="44.89933" lon="5.09594">
        <ele>386.53</ele>
        <time>2017-11-15T12:10:48.000Z</time>
      </trkpt>
      <trkpt lat="44.89917" lon="5.09607">
        <ele>386.76</ele>
        <time>2017-11-15T12:11:27.000Z</time>
      </trkpt>
      <trkpt lat="44.89899" lon="5.09612">
        <ele>385.38</ele>
        <time>2017-11-15T12:11:44.000Z</time>
      </trkpt>
      <trkpt lat="44.89881" lon="5.09609">
        <ele>382.43</ele>
        <time>2017-11-15T12:12:04.000Z</time>
      </trkpt>
      <trkpt lat="44.89863" lon="5.09605">
        <ele>379.61</ele>
        <time>2017-11-15T12:12:24.000Z</time>
      </trkpt>
      <trkpt lat="44.89844" lon="5.09602">
        <ele>377.5</ele>
        <time>2017-11-15T12:12:43.000Z</time>
      </trkpt>
      <trkpt lat="44.89828" lon="5.09592">
        <ele>376.27</ele>
        <time>2017-11-15T12:13:03.000Z</time>
      </trkpt>
      <trkpt lat="44.89812" lon="5.0958">
        <ele>375.96</ele>
        <time>2017-11-15T12:13:24.000Z</time>
      </trkpt>
      <trkpt lat="44.89796" lon="5.09567">
        <ele>376.53</ele>
        <time>2017-11-15T12:13:51.000Z</time>
      </trkpt>
      <trkpt lat="44.89778" lon="5.09556">
        <ele>377.85</ele>
        <time>2017-11-15T12:14:30.000Z</time>
      </trkpt>
      <trkpt lat="44.89762" lon="5.0954">
        <ele>379.44</ele>
        <time>2017-11-15T12:14:47.000Z</time>
      </trkpt>
      <trkpt lat="44.89744" lon="5.09536">
        <ele>381.54</ele>
        <time>2017-11-15T12:15:02.000Z</time>
      </trkpt>
      <trkpt lat="44.89729" lon="5.0952">
        <ele>383.38</ele>
        <time>2017-11-15T12:15:21.000Z</time>
      </trkpt>
      <trkpt lat="44.89714" lon="5.09504">
        <ele>384.98</ele>
        <time>2017-11-15T12:15:41.000Z</time>
      </trkpt>
      <trkpt lat="44.89696" lon="5.09494">
        <ele>387.47</ele>
        <time>2017-11-15T12:16:35.000Z</time>
      </trkpt>
      <trkpt lat="44.8968" lon="5.09476">
        <ele>388.31</ele>
        <time>2017-11-15T12:16:49.000Z</time>
      </trkpt>
      <trkpt lat="44.89669" lon="5.09455">
        <ele>387.75</ele>
        <time>2017-11-15T12:17:18.000Z</time>
      </trkpt>
      <trkpt lat="44.89656" lon="5.09437">
        <ele>388.08</ele>
        <time>2017-11-15T12:17:36.000Z</time>
      </trkpt>
      <trkpt lat="44.89642" lon="5.0942">
        <ele>389.26</ele>
        <time>2017-11-15T12:17:53.000Z</time>
      </trkpt>
      <trkpt lat="44.89626" lon="5.09407">
        <ele>391.58</ele>
        <time>2017-11-15T12:18:06.000Z</time>
      </trkpt>
      <trkpt lat="44.8961" lon="5.09392">
        <ele>394.21</ele>
        <time>2017-11-15T12:18:37.000Z</time>
      </trkpt>
      <trkpt lat="44.89596" lon="5.0937">
        <ele>396.21</ele>
        <time>2017-11-15T12:18:58.000Z</time>
      </trkpt>
      <trkpt lat="44.89579" lon="5.09362">
        <ele>399.42</ele>
        <time>2017-11-15T12:19:24.000Z</time>
      </trkpt>
      <trkpt lat="44.89563" lon="5.09345">
        <ele>402.33</ele>
        <time>2017-11-15T12:19:53.000Z</time>
      </trkpt>
      <trkpt lat="44.89548" lon="5.09328">
        <ele>405.06</ele>
        <time>2017-11-15T12:20:26.000Z</time>
      </trkpt>
      <trkpt lat="44.89549" lon="5.09354">
        <ele>405.97</ele>
        <time>2017-11-15T12:21:40.000Z</time>
      </trkpt>
      <trkpt lat="44.8954" lon="5.09377">
        <ele>409.34</ele>
        <time>2017-11-15T12:22:12.000Z</time>
      </trkpt>
      <trkpt lat="44.89537" lon="5.09402">
        <ele>412.14</ele>
        <time>2017-11-15T12:22:38.000Z</time>
      </trkpt>
      <trkpt lat="44.89535" lon="5.09429">
        <ele>415.19</ele>
        <time>2017-11-15T12:23:19.000Z</time>
      </trkpt>
      <trkpt lat="44.89529" lon="5.09453">
        <ele>420.42</ele>
        <time>2017-11-15T12:23:36.000Z</time>
      </trkpt>
      <trkpt lat="44.89524" lon="5.09478">
        <ele>425.83</ele>
        <time>2017-11-15T12:24:05.000Z</time>
      </trkpt>
      <trkpt lat="44.89509" lon="5.09492">
        <ele>433.52</ele>
        <time>2017-11-15T12:24:53.000Z</time>
      </trkpt>
      <trkpt lat="44.89516" lon="5.09515">
        <ele>434.43</ele>
        <time>2017-11-15T12:25:38.000Z</time>
      </trkpt>
      <trkpt lat="44.89523" lon="5.0954">
        <ele>436.12</ele>
        <time>2017-11-15T12:26:06.000Z</time>
      </trkpt>
      <trkpt lat="44.8952" lon="5.09565">
        <ele>441.49</ele>
        <time>2017-11-15T12:26:23.000Z</time>
      </trkpt>
      <trkpt lat="44.89521" lon="5.09593">
        <ele>445.15</ele>
        <time>2017-11-15T12:26:50.000Z</time>
      </trkpt>
      <trkpt lat="44.89526" lon="5.0962">
        <ele>447.57</ele>
        <time>2017-11-15T12:27:20.000Z</time>
      </trkpt>
      <trkpt lat="44.89536" lon="5.09642">
        <ele>447.56</ele>
        <time>2017-11-15T12:28:04.000Z</time>
      </trkpt>
      <trkpt lat="44.89547" lon="5.09662">
        <ele>446.15</ele>
        <time>2017-11-15T12:28:20.000Z</time>
      </trkpt>
      <trkpt lat="44.89554" lon="5.09686">
        <ele>445.27</ele>
        <time>2017-11-15T12:28:49.000Z</time>
      </trkpt>
      <trkpt lat="44.89557" lon="5.09711">
        <ele>444.76</ele>
        <time>2017-11-15T12:29:25.000Z</time>
      </trkpt>
      <trkpt lat="44.89548" lon="5.09733">
        <ele>445.46</ele>
        <time>2017-11-15T12:29:56.000Z</time>
      </trkpt>
      <trkpt lat="44.89529" lon="5.09743">
        <ele>446.09</ele>
        <time>2017-11-15T12:30:12.000Z</time>
      </trkpt>
      <trkpt lat="44.89511" lon="5.09737">
        <ele>448.23</ele>
        <time>2017-11-15T12:30:35.000Z</time>
      </trkpt>
      <trkpt lat="44.89492" lon="5.09735">
        <ele>449.44</ele>
        <time>2017-11-15T12:30:55.000Z</time>
      </trkpt>
      <trkpt lat="44.89474" lon="5.09733">
        <ele>449.48</ele>
        <time>2017-11-15T12:31:11.000Z</time>
      </trkpt>
      <trkpt lat="44.89455" lon="5.09736">
        <ele>447.65</ele>
        <time>2017-11-15T12:31:39.000Z</time>
      </trkpt>
      <trkpt lat="44.89437" lon="5.09737">
        <ele>446.45</ele>
        <time>2017-11-15T12:32:09.000Z</time>
      </trkpt>
      <trkpt lat="44.89417" lon="5.09741">
        <ele>445.2</ele>
        <time>2017-11-15T12:32:34.000Z</time>
      </trkpt>
      <trkpt lat="44.89399" lon="5.09732">
        <ele>448.13</ele>
        <time>2017-11-15T12:32:53.000Z</time>
      </trkpt>
      <trkpt lat="44.89382" lon="5.09726">
        <ele>450.57</ele>
        <time>2017-11-15T12:33:12.000Z</time>
      </trkpt>
      <trkpt lat="44.89372" lon="5.09748">
        <ele>446.4</ele>
        <time>2017-11-15T12:33:34.000Z</time>
      </trkpt>
      <trkpt lat="44.89356" lon="5.0976">
        <ele>445.2</ele>
        <time>2017-11-15T12:33:57.000Z</time>
      </trkpt>
      <trkpt lat="44.89338" lon="5.09764">
        <ele>446.16</ele>
        <time>2017-11-15T12:34:25.000Z</time>
      </trkpt>
      <trkpt lat="44.89319" lon="5.09764">
        <ele>448.44</ele>
        <time>2017-11-15T12:34:45.000Z</time>
      </trkpt>
      <trkpt lat="44.89301" lon="5.09768">
        <ele>449.88</ele>
        <time>2017-11-15T12:35:06.000Z</time>
      </trkpt>
      <trkpt lat="44.89283" lon="5.09764">
        <ele>453.34</ele>
        <time>2017-11-15T12:35:36.000Z</time>
      </trkpt>
      <trkpt lat="44.89265" lon="5.09767">
        <ele>455.03</ele>
        <time>2017-11-15T12:35:57.000Z</time>
      </trkpt>
      <trkpt lat="44.89244" lon="5.09772">
        <ele>456.03</ele>
        <time>2017-11-15T12:38:31.000Z</time>
      </trkpt>
      <trkpt lat="44.89229" lon="5.09785">
        <ele>454.43</ele>
        <time>2017-11-15T12:38:44.000Z</time>
      </trkpt>
      <trkpt lat="44.89213" lon="5.09799">
        <ele>453.53</ele>
        <time>2017-11-15T12:39:34.000Z</time>
      </trkpt>
      <trkpt lat="44.89195" lon="5.09806">
        <ele>454.75</ele>
        <time>2017-11-15T12:40:37.000Z</time>
      </trkpt>
      <trkpt lat="44.89209" lon="5.09788">
        <ele>455.67</ele>
        <time>2017-11-15T12:41:27.000Z</time>
      </trkpt>
      <trkpt lat="44.89227" lon="5.09774">
        <ele>456.97</ele>
        <time>2017-11-15T12:41:45.000Z</time>
      </trkpt>
      <trkpt lat="44.89245" lon="5.09766">
        <ele>457.49</ele>
        <time>2017-11-15T12:42:03.000Z</time>
      </trkpt>
      <trkpt lat="44.89227" lon="5.09766">
        <ele>458.64</ele>
        <time>2017-11-15T12:42:47.000Z</time>
      </trkpt>
      <trkpt lat="44.89209" lon="5.09759">
        <ele>461.05</ele>
        <time>2017-11-15T12:43:03.000Z</time>
      </trkpt>
      <trkpt lat="44.89196" lon="5.09743">
        <ele>464.94</ele>
        <time>2017-11-15T12:43:16.000Z</time>
      </trkpt>
      <trkpt lat="44.89181" lon="5.09727">
        <ele>468.86</ele>
        <time>2017-11-15T12:43:31.000Z</time>
      </trkpt>
      <trkpt lat="44.89166" lon="5.09713">
        <ele>473.07</ele>
        <time>2017-11-15T12:43:54.000Z</time>
      </trkpt>
      <trkpt lat="44.89153" lon="5.09694">
        <ele>478.68</ele>
        <time>2017-11-15T12:44:37.000Z</time>
      </trkpt>
      <trkpt lat="44.89137" lon="5.09681">
        <ele>483.31</ele>
        <time>2017-11-15T12:44:53.000Z</time>
      </trkpt>
      <trkpt lat="44.89118" lon="5.09675">
        <ele>487.12</ele>
        <time>2017-11-15T12:45:32.000Z</time>
      </trkpt>
      <trkpt lat="44.89128" lon="5.09697">
        <ele>481.64</ele>
        <time>2017-11-15T12:46:32.000Z</time>
      </trkpt>
      <trkpt lat="44.89127" lon="5.09723">
        <ele>477.56</ele>
        <time>2017-11-15T12:46:55.000Z</time>
      </trkpt>
      <trkpt lat="44.89119" lon="5.09746">
        <ele>475.98</ele>
        <time>2017-11-15T12:48:00.000Z</time>
      </trkpt>
      <trkpt lat="44.89107" lon="5.09765">
        <ele>476.48</ele>
        <time>2017-11-15T12:48:20.000Z</time>
      </trkpt>
      <trkpt lat="44.89096" lon="5.09786">
        <ele>476.24</ele>
        <time>2017-11-15T12:48:39.000Z</time>
      </trkpt>
      <trkpt lat="44.89077" lon="5.09786">
        <ele>481.23</ele>
        <time>2017-11-15T12:49:10.000Z</time>
      </trkpt>
      <trkpt lat="44.89068" lon="5.09809">
        <ele>479.8</ele>
        <time>2017-11-15T12:49:18.000Z</time>
      </trkpt>
      <trkpt lat="44.89055" lon="5.09828">
        <ele>481.09</ele>
        <time>2017-11-15T12:49:51.000Z</time>
      </trkpt>
      <trkpt lat="44.89037" lon="5.09833">
        <ele>485.2</ele>
        <time>2017-11-15T12:50:16.000Z</time>
      </trkpt>
      <trkpt lat="44.89021" lon="5.09847">
        <ele>488.2</ele>
        <time>2017-11-15T12:50:37.000Z</time>
      </trkpt>
      <trkpt lat="44.89011" lon="5.09869">
        <ele>488.89</ele>
        <time>2017-11-15T12:51:04.000Z</time>
      </trkpt>
      <trkpt lat="44.88994" lon="5.09886">
        <ele>491.3</ele>
        <time>2017-11-15T12:52:03.000Z</time>
      </trkpt>
      <trkpt lat="44.88977" lon="5.09895">
        <ele>493.82</ele>
        <time>2017-11-15T12:52:14.000Z</time>
      </trkpt>
      <trkpt lat="44.8896" lon="5.09905">
        <ele>495.97</ele>
        <time>2017-11-15T12:52:58.000Z</time>
      </trkpt>
      <trkpt lat="44.88942" lon="5.09915">
        <ele>498.06</ele>
        <time>2017-11-15T12:54:07.000Z</time>
      </trkpt>
      <trkpt lat="44.88924" lon="5.09923">
        <ele>500.35</ele>
        <time>2017-11-15T12:54:54.000Z</time>
      </trkpt>
      <trkpt lat="44.88907" lon="5.09935">
        <ele>502.58</ele>
        <time>2017-11-15T12:55:36.000Z</time>
      </trkpt>
      <trkpt lat="44.88888" lon="5.09938">
        <ele>505.51</ele>
        <time>2017-11-15T12:55:44.000Z</time>
      </trkpt>
      <trkpt lat="44.88869" lon="5.09942">
        <ele>508.5</ele>
        <time>2017-11-15T12:56:45.000Z</time>
      </trkpt>
      <trkpt lat="44.88852" lon="5.09952">
        <ele>510.75</ele>
        <time>2017-11-15T12:57:31.000Z</time>
      </trkpt>
      <trkpt lat="44.88834" lon="5.09958">
        <ele>513.45</ele>
        <time>2017-11-15T12:57:41.000Z</time>
      </trkpt>
      <trkpt lat="44.88815" lon="5.09958">
        <ele>516.45</ele>
        <time>2017-11-15T12:58:20.000Z</time>
      </trkpt>
      <trkpt lat="44.88795" lon="5.09954">
        <ele>520.01</ele>
        <time>2017-11-15T12:58:36.000Z</time>
      </trkpt>
      <trkpt lat="44.88775" lon="5.09952">
        <ele>523.57</ele>
        <time>2017-11-15T12:59:29.000Z</time>
      </trkpt>
      <trkpt lat="44.88756" lon="5.0995">
        <ele>527.19</ele>
        <time>2017-11-15T12:59:36.000Z</time>
      </trkpt>
      <trkpt lat="44.88737" lon="5.09942">
        <ele>531.59</ele>
        <time>2017-11-15T13:00:06.000Z</time>
      </trkpt>
      <trkpt lat="44.88719" lon="5.09937">
        <ele>535.43</ele>
        <time>2017-11-15T13:00:54.000Z</time>
      </trkpt>
      <trkpt lat="44.88704" lon="5.09922">
        <ele>539.57</ele>
        <time>2017-11-15T13:01:57.000Z</time>
      </trkpt>
      <trkpt lat="44.88686" lon="5.09913">
        <ele>543.73</ele>
        <time>2017-11-15T13:02:33.000Z</time>
      </trkpt>
      <trkpt lat="44.88667" lon="5.099">
        <ele>549.12</ele>
        <time>2017-11-15T13:03:52.000Z</time>
      </trkpt>
      <trkpt lat="44.88649" lon="5.0989">
        <ele>554.27</ele>
        <time>2017-11-15T13:04:01.000Z</time>
      </trkpt>
      <trkpt lat="44.88633" lon="5.09876">
        <ele>559.54</ele>
        <time>2017-11-15T13:04:56.000Z</time>
      </trkpt>
      <trkpt lat="44.88615" lon="5.09868">
        <ele>564.47</ele>
        <time>2017-11-15T13:05:37.000Z</time>
      </trkpt>
      <trkpt lat="44.88596" lon="5.09866">
        <ele>568.83</ele>
        <time>2017-11-15T13:05:45.000Z</time>
      </trkpt>
      <trkpt lat="44.88579" lon="5.09875">
        <ele>572.41</ele>
        <time>2017-11-15T13:08:16.000Z</time>
      </trkpt>
      <trkpt lat="44.88561" lon="5.0988">
        <ele>577.92</ele>
        <time>2017-11-15T13:08:31.000Z</time>
      </trkpt>
      <trkpt lat="44.88543" lon="5.09875">
        <ele>585.15</ele>
        <time>2017-11-15T13:10:00.000Z</time>
      </trkpt>
      <trkpt lat="44.88526" lon="5.09866">
        <ele>592.1</ele>
        <time>2017-11-15T13:12:38.000Z</time>
      </trkpt>
      <trkpt lat="44.88507" lon="5.09852">
        <ele>599.06</ele>
        <time>2017-11-15T13:13:22.000Z</time>
      </trkpt>
      <trkpt lat="44.88493" lon="5.09837">
        <ele>603.54</ele>
        <time>2017-11-15T13:15:48.000Z</time>
      </trkpt>
      <trkpt lat="44.88475" lon="5.09827">
        <ele>607.86</ele>
        <time>2017-11-15T13:16:38.000Z</time>
      </trkpt>
      <trkpt lat="44.88454" lon="5.09824">
        <ele>611.86</ele>
        <time>2017-11-15T13:16:58.000Z</time>
      </trkpt>
      <trkpt lat="44.88446" lon="5.09802">
        <ele>612.81</ele>
        <time>2017-11-15T13:17:30.000Z</time>
      </trkpt>
      <trkpt lat="44.88428" lon="5.09795">
        <ele>613.37</ele>
        <time>2017-11-15T13:17:47.000Z</time>
      </trkpt>
      <trkpt lat="44.88433" lon="5.0982">
        <ele>614</ele>
        <time>2017-11-15T13:33:15.000Z</time>
      </trkpt>
      <trkpt lat="44.88436" lon="5.09845">
        <ele>615.39</ele>
        <time>2017-11-15T13:33:32.000Z</time>
      </trkpt>
      <trkpt lat="44.8843" lon="5.09869">
        <ele>618.64</ele>
        <time>2017-11-15T13:34:26.000Z</time>
      </trkpt>
      <trkpt lat="44.88417" lon="5.09888">
        <ele>622.54</ele>
        <time>2017-11-15T13:34:38.000Z</time>
      </trkpt>
      <trkpt lat="44.88407" lon="5.09911">
        <ele>626.63</ele>
        <time>2017-11-15T13:35:01.000Z</time>
      </trkpt>
      <trkpt lat="44.88405" lon="5.09937">
        <ele>630.67</ele>
        <time>2017-11-15T13:36:01.000Z</time>
      </trkpt>
      <trkpt lat="44.88402" lon="5.09962">
        <ele>635</ele>
        <time>2017-11-15T13:36:55.000Z</time>
      </trkpt>
      <trkpt lat="44.88393" lon="5.09984">
        <ele>638.76</ele>
        <time>2017-11-15T13:37:29.000Z</time>
      </trkpt>
      <trkpt lat="44.8838" lon="5.10002">
        <ele>641.28</ele>
        <time>2017-11-15T13:38:05.000Z</time>
      </trkpt>
      <trkpt lat="44.88389" lon="5.10026">
        <ele>642.73</ele>
        <time>2017-11-15T13:42:52.000Z</time>
      </trkpt>
      <trkpt lat="44.88403" lon="5.10044">
        <ele>642.75</ele>
        <time>2017-11-15T13:43:14.000Z</time>
      </trkpt>
      <trkpt lat="44.88414" lon="5.10065">
        <ele>642.37</ele>
        <time>2017-11-15T13:43:38.000Z</time>
      </trkpt>
      <trkpt lat="44.88428" lon="5.10081">
        <ele>640.92</ele>
        <time>2017-11-15T13:44:03.000Z</time>
      </trkpt>
      <trkpt lat="44.88442" lon="5.10099">
        <ele>638.92</ele>
        <time>2017-11-15T13:44:20.000Z</time>
      </trkpt>
      <trkpt lat="44.88457" lon="5.10113">
        <ele>636.84</ele>
        <time>2017-11-15T13:44:41.000Z</time>
      </trkpt>
      <trkpt lat="44.88468" lon="5.10135">
        <ele>636.24</ele>
        <time>2017-11-15T13:45:04.000Z</time>
      </trkpt>
      <trkpt lat="44.88479" lon="5.10156">
        <ele>636.74</ele>
        <time>2017-11-15T13:45:21.000Z</time>
      </trkpt>
      <trkpt lat="44.88487" lon="5.1018">
        <ele>638.14</ele>
        <time>2017-11-15T13:45:45.000Z</time>
      </trkpt>
      <trkpt lat="44.88495" lon="5.10204">
        <ele>639.98</ele>
        <time>2017-11-15T13:46:25.000Z</time>
      </trkpt>
      <trkpt lat="44.8851" lon="5.1022">
        <ele>640.23</ele>
        <time>2017-11-15T13:46:41.000Z</time>
      </trkpt>
      <trkpt lat="44.88523" lon="5.1024">
        <ele>639.93</ele>
        <time>2017-11-15T13:47:06.000Z</time>
      </trkpt>
      <trkpt lat="44.88533" lon="5.10261">
        <ele>638.45</ele>
        <time>2017-11-15T13:47:31.000Z</time>
      </trkpt>
      <trkpt lat="44.88528" lon="5.10287">
        <ele>635.92</ele>
        <time>2017-11-15T13:48:08.000Z</time>
      </trkpt>
      <trkpt lat="44.88514" lon="5.10305">
        <ele>632.56</ele>
        <time>2017-11-15T13:49:14.000Z</time>
      </trkpt>
      <trkpt lat="44.88501" lon="5.10327">
        <ele>627.59</ele>
        <time>2017-11-15T13:49:25.000Z</time>
      </trkpt>
      <trkpt lat="44.88486" lon="5.10343">
        <ele>624.14</ele>
        <time>2017-11-15T13:50:08.000Z</time>
      </trkpt>
      <trkpt lat="44.88467" lon="5.10354">
        <ele>622.34</ele>
        <time>2017-11-15T13:51:02.000Z</time>
      </trkpt>
      <trkpt lat="44.88453" lon="5.10371">
        <ele>619.15</ele>
        <time>2017-11-15T13:53:18.000Z</time>
      </trkpt>
      <trkpt lat="44.88435" lon="5.10372">
        <ele>619.33</ele>
        <time>2017-11-15T13:54:01.000Z</time>
      </trkpt>
      <trkpt lat="44.88421" lon="5.10388">
        <ele>615.07</ele>
        <time>2017-11-15T13:54:49.000Z</time>
      </trkpt>
      <trkpt lat="44.88409" lon="5.10409">
        <ele>608.61</ele>
        <time>2017-11-15T13:55:32.000Z</time>
      </trkpt>
      <trkpt lat="44.88392" lon="5.10422">
        <ele>602.41</ele>
        <time>2017-11-15T13:55:52.000Z</time>
      </trkpt>
      <trkpt lat="44.8839" lon="5.10448">
        <ele>596.39</ele>
        <time>2017-11-15T13:56:36.000Z</time>
      </trkpt>
      <trkpt lat="44.88378" lon="5.10469">
        <ele>590.56</ele>
        <time>2017-11-15T13:56:59.000Z</time>
      </trkpt>
      <trkpt lat="44.88369" lon="5.10491">
        <ele>587.01</ele>
        <time>2017-11-15T13:57:11.000Z</time>
      </trkpt>
      <trkpt lat="44.88363" lon="5.10518">
        <ele>586.69</ele>
        <time>2017-11-15T13:57:26.000Z</time>
      </trkpt>
      <trkpt lat="44.88351" lon="5.10539">
        <ele>589.05</ele>
        <time>2017-11-15T13:57:48.000Z</time>
      </trkpt>
      <trkpt lat="44.88345" lon="5.10564">
        <ele>593.38</ele>
        <time>2017-11-15T13:58:26.000Z</time>
      </trkpt>
      <trkpt lat="44.88341" lon="5.10591">
        <ele>597.76</ele>
        <time>2017-11-15T13:59:09.000Z</time>
      </trkpt>
      <trkpt lat="44.88335" lon="5.10616">
        <ele>601.61</ele>
        <time>2017-11-15T13:59:32.000Z</time>
      </trkpt>
      <trkpt lat="44.88324" lon="5.10636">
        <ele>604.37</ele>
        <time>2017-11-15T14:00:10.000Z</time>
      </trkpt>
      <trkpt lat="44.88322" lon="5.10662">
        <ele>607.58</ele>
        <time>2017-11-15T14:00:34.000Z</time>
      </trkpt>
      <trkpt lat="44.88312" lon="5.10683">
        <ele>609.17</ele>
        <time>2017-11-15T14:01:04.000Z</time>
      </trkpt>
      <trkpt lat="44.88311" lon="5.1071">
        <ele>611.88</ele>
        <time>2017-11-15T14:01:47.000Z</time>
      </trkpt>
      <trkpt lat="44.88315" lon="5.10736">
        <ele>614.08</ele>
        <time>2017-11-15T14:02:08.000Z</time>
      </trkpt>
      <trkpt lat="44.88316" lon="5.10761">
        <ele>614.56</ele>
        <time>2017-11-15T14:02:30.000Z</time>
      </trkpt>
      <trkpt lat="44.88317" lon="5.10788">
        <ele>613.71</ele>
        <time>2017-11-15T14:02:54.000Z</time>
      </trkpt>
      <trkpt lat="44.88309" lon="5.10812">
        <ele>611.25</ele>
        <time>2017-11-15T14:03:10.000Z</time>
      </trkpt>
      <trkpt lat="44.88313" lon="5.10837">
        <ele>609.38</ele>
        <time>2017-11-15T14:03:35.000Z</time>
      </trkpt>
      <trkpt lat="44.88314" lon="5.10864">
        <ele>605.81</ele>
        <time>2017-11-15T14:03:56.000Z</time>
      </trkpt>
      <trkpt lat="44.88312" lon="5.1089">
        <ele>601.51</ele>
        <time>2017-11-15T14:04:33.000Z</time>
      </trkpt>
      <trkpt lat="44.88319" lon="5.10914">
        <ele>598.97</ele>
        <time>2017-11-15T14:04:51.000Z</time>
      </trkpt>
      <trkpt lat="44.88318" lon="5.10939">
        <ele>596.2</ele>
        <time>2017-11-15T14:05:27.000Z</time>
      </trkpt>
      <trkpt lat="44.88327" lon="5.10964">
        <ele>595.08</ele>
        <time>2017-11-15T14:06:00.000Z</time>
      </trkpt>
      <trkpt lat="44.88333" lon="5.10988">
        <ele>594.27</ele>
        <time>2017-11-15T14:06:18.000Z</time>
      </trkpt>
      <trkpt lat="44.8834" lon="5.11012">
        <ele>594.1</ele>
        <time>2017-11-15T14:06:57.000Z</time>
      </trkpt>
      <trkpt lat="44.88347" lon="5.11038">
        <ele>594.66</ele>
        <time>2017-11-15T14:07:08.000Z</time>
      </trkpt>
      <trkpt lat="44.88342" lon="5.11063">
        <ele>595.81</ele>
        <time>2017-11-15T14:07:34.000Z</time>
      </trkpt>
      <trkpt lat="44.88341" lon="5.1109">
        <ele>596.27</ele>
        <time>2017-11-15T14:07:55.000Z</time>
      </trkpt>
      <trkpt lat="44.88335" lon="5.11115">
        <ele>595.98</ele>
        <time>2017-11-15T14:08:13.000Z</time>
      </trkpt>
      <trkpt lat="44.88331" lon="5.1114">
        <ele>595.35</ele>
        <time>2017-11-15T14:08:28.000Z</time>
      </trkpt>
      <trkpt lat="44.88324" lon="5.11163">
        <ele>594.18</ele>
        <time>2017-11-15T14:08:42.000Z</time>
      </trkpt>
      <trkpt lat="44.88327" lon="5.11189">
        <ele>593.95</ele>
        <time>2017-11-15T14:09:19.000Z</time>
      </trkpt>
      <trkpt lat="44.88331" lon="5.11214">
        <ele>593.29</ele>
        <time>2017-11-15T14:09:33.000Z</time>
      </trkpt>
      <trkpt lat="44.88333" lon="5.1124">
        <ele>592.87</ele>
        <time>2017-11-15T14:09:56.000Z</time>
      </trkpt>
      <trkpt lat="44.88334" lon="5.11268">
        <ele>593.69</ele>
        <time>2017-11-15T14:10:13.000Z</time>
      </trkpt>
      <trkpt lat="44.88334" lon="5.11293">
        <ele>595.42</ele>
        <time>2017-11-15T14:11:06.000Z</time>
      </trkpt>
      <trkpt lat="44.88334" lon="5.11319">
        <ele>597.68</ele>
        <time>2017-11-15T14:11:19.000Z</time>
      </trkpt>
      <trkpt lat="44.88319" lon="5.11335">
        <ele>599.86</ele>
        <time>2017-11-15T14:12:12.000Z</time>
      </trkpt>
      <trkpt lat="44.88315" lon="5.11361">
        <ele>602.88</ele>
        <time>2017-11-15T14:12:32.000Z</time>
      </trkpt>
      <trkpt lat="44.88311" lon="5.11387">
        <ele>606.63</ele>
        <time>2017-11-15T14:13:03.000Z</time>
      </trkpt>
      <trkpt lat="44.8831" lon="5.11415">
        <ele>611.79</ele>
        <time>2017-11-15T14:13:30.000Z</time>
      </trkpt>
      <trkpt lat="44.88312" lon="5.11446">
        <ele>617.74</ele>
        <time>2017-11-15T14:14:31.000Z</time>
      </trkpt>
      <trkpt lat="44.88321" lon="5.11472">
        <ele>621.08</ele>
        <time>2017-11-15T14:14:41.000Z</time>
      </trkpt>
      <trkpt lat="44.88319" lon="5.11498">
        <ele>628.81</ele>
        <time>2017-11-15T14:15:04.000Z</time>
      </trkpt>
      <trkpt lat="44.88331" lon="5.11518">
        <ele>630.81</ele>
        <time>2017-11-15T14:15:26.000Z</time>
      </trkpt>
      <trkpt lat="44.8833" lon="5.11544">
        <ele>641.81</ele>
        <time>2017-11-15T14:16:09.000Z</time>
      </trkpt>
      <trkpt lat="44.88338" lon="5.1157">
        <ele>649.24</ele>
        <time>2017-11-15T14:19:25.000Z</time>
      </trkpt>
      <trkpt lat="44.88346" lon="5.11599">
        <ele>656.61</ele>
        <time>2017-11-15T14:19:57.000Z</time>
      </trkpt>
      <trkpt lat="44.88357" lon="5.11623">
        <ele>660.51</ele>
        <time>2017-11-15T14:20:03.000Z</time>
      </trkpt>
      <trkpt lat="44.88347" lon="5.11646">
        <ele>675.15</ele>
        <time>2017-11-15T14:20:13.000Z</time>
      </trkpt>
      <trkpt lat="44.88359" lon="5.11667">
        <ele>676.68</ele>
        <time>2017-11-15T14:23:34.000Z</time>
      </trkpt>
      <trkpt lat="44.88367" lon="5.1169">
        <ele>680.53</ele>
        <time>2017-11-15T14:23:44.000Z</time>
      </trkpt>
      <trkpt lat="44.88375" lon="5.11715">
        <ele>684.78</ele>
        <time>2017-11-15T14:23:59.000Z</time>
      </trkpt>
      <trkpt lat="44.88375" lon="5.11741">
        <ele>692.92</ele>
        <time>2017-11-15T14:31:07.000Z</time>
      </trkpt>
      <trkpt lat="44.88378" lon="5.11767">
        <ele>699.53</ele>
        <time>2017-11-15T14:31:18.000Z</time>
      </trkpt>
      <trkpt lat="44.88381" lon="5.11792">
        <ele>704.94</ele>
        <time>2017-11-15T14:31:47.000Z</time>
      </trkpt>
      <trkpt lat="44.88377" lon="5.11819">
        <ele>714.29</ele>
        <time>2017-11-15T14:32:49.000Z</time>
      </trkpt>
      <trkpt lat="44.88373" lon="5.11844">
        <ele>723.08</ele>
        <time>2017-11-15T14:33:49.000Z</time>
      </trkpt>
      <trkpt lat="44.88364" lon="5.11866">
        <ele>733.24</ele>
        <time>2017-11-15T14:36:47.000Z</time>
      </trkpt>
      <trkpt lat="44.88375" lon="5.11887">
        <ele>736.34</ele>
        <time>2017-11-15T14:37:31.000Z</time>
      </trkpt>
      <trkpt lat="44.88382" lon="5.11911">
        <ele>742.18</ele>
        <time>2017-11-15T14:37:41.000Z</time>
      </trkpt>
      <trkpt lat="44.88391" lon="5.11936">
        <ele>749.6</ele>
        <time>2017-11-15T14:39:40.000Z</time>
      </trkpt>
      <trkpt lat="44.88403" lon="5.11958">
        <ele>756.38</ele>
        <time>2017-11-15T14:39:52.000Z</time>
      </trkpt>
      <trkpt lat="44.88421" lon="5.11976">
        <ele>760.47</ele>
        <time>2017-11-15T14:41:03.000Z</time>
      </trkpt>
      <trkpt lat="44.88439" lon="5.11987">
        <ele>760.59</ele>
        <time>2017-11-15T14:44:23.000Z</time>
      </trkpt>
      <trkpt lat="44.88457" lon="5.11994">
        <ele>758.29</ele>
        <time>2017-11-15T14:44:42.000Z</time>
      </trkpt>
      <trkpt lat="44.88494" lon="5.12017">
        <ele>762.56</ele>
        <time>2017-11-15T14:56:36.000Z</time>
      </trkpt>
      <trkpt lat="44.8851" lon="5.11984">
        <ele>749.1</ele>
        <time>2017-11-15T14:58:33.000Z</time>
      </trkpt>
      <trkpt lat="44.88496" lon="5.12023">
        <ele>765.45</ele>
        <time>2017-11-15T14:59:49.000Z</time>
      </trkpt>
      <trkpt lat="44.88522" lon="5.12021">
        <ele>770.14</ele>
        <time>2017-11-15T15:06:35.000Z</time>
      </trkpt>
      <trkpt lat="44.88502" lon="5.12026">
        <ele>767.59</ele>
        <time>2017-11-15T15:13:10.000Z</time>
      </trkpt>
      <trkpt lat="44.88517" lon="5.11995">
        <ele>756.34</ele>
        <time>2017-11-15T15:15:10.000Z</time>
      </trkpt>
      <trkpt lat="44.88532" lon="5.11982">
        <ele>755.68</ele>
        <time>2017-11-15T15:16:16.000Z</time>
      </trkpt>
      <trkpt lat="44.88546" lon="5.11961">
        <ele>750.63</ele>
        <time>2017-11-15T15:17:21.000Z</time>
      </trkpt>
      <trkpt lat="44.88557" lon="5.1194">
        <ele>742.99</ele>
        <time>2017-11-15T15:17:44.000Z</time>
      </trkpt>
      <trkpt lat="44.88574" lon="5.1193">
        <ele>743.06</ele>
        <time>2017-11-15T15:18:25.000Z</time>
      </trkpt>
      <trkpt lat="44.8859" lon="5.11919">
        <ele>741</ele>
        <time>2017-11-15T15:25:21.000Z</time>
      </trkpt>
      <trkpt lat="44.88611" lon="5.11917">
        <ele>744.61</ele>
        <time>2017-11-15T15:26:09.000Z</time>
      </trkpt>
      <trkpt lat="44.88629" lon="5.11921">
        <ele>750.71</ele>
        <time>2017-11-15T15:26:41.000Z</time>
      </trkpt>
      <trkpt lat="44.88644" lon="5.11904">
        <ele>744.03</ele>
        <time>2017-11-15T15:29:02.000Z</time>
      </trkpt>
      <trkpt lat="44.88656" lon="5.11886">
        <ele>736.13</ele>
        <time>2017-11-15T15:29:54.000Z</time>
      </trkpt>
      <trkpt lat="44.88671" lon="5.11869">
        <ele>728.73</ele>
        <time>2017-11-15T15:30:16.000Z</time>
      </trkpt>
      <trkpt lat="44.8868" lon="5.11846">
        <ele>718.32</ele>
        <time>2017-11-15T15:31:49.000Z</time>
      </trkpt>
      <trkpt lat="44.88673" lon="5.11821">
        <ele>706.64</ele>
        <time>2017-11-15T15:33:43.000Z</time>
      </trkpt>
      <trkpt lat="44.88673" lon="5.11795">
        <ele>694.38</ele>
        <time>2017-11-15T15:36:07.000Z</time>
      </trkpt>
      <trkpt lat="44.88669" lon="5.1177">
        <ele>682.78</ele>
        <time>2017-11-15T15:36:46.000Z</time>
      </trkpt>
      <trkpt lat="44.88687" lon="5.11762">
        <ele>682.02</ele>
        <time>2017-11-15T15:37:14.000Z</time>
      </trkpt>
      <trkpt lat="44.88706" lon="5.11752">
        <ele>680.54</ele>
        <time>2017-11-15T15:38:48.000Z</time>
      </trkpt>
      <trkpt lat="44.88723" lon="5.11741">
        <ele>678.21</ele>
        <time>2017-11-15T15:39:03.000Z</time>
      </trkpt>
      <trkpt lat="44.8874" lon="5.11734">
        <ele>677.01</ele>
        <time>2017-11-15T15:39:28.000Z</time>
      </trkpt>
      <trkpt lat="44.88757" lon="5.11721">
        <ele>672.95</ele>
        <time>2017-11-15T15:39:48.000Z</time>
      </trkpt>
      <trkpt lat="44.88774" lon="5.11712">
        <ele>669.78</ele>
        <time>2017-11-15T15:40:11.000Z</time>
      </trkpt>
      <trkpt lat="44.88793" lon="5.11705">
        <ele>667.18</ele>
        <time>2017-11-15T15:40:59.000Z</time>
      </trkpt>
      <trkpt lat="44.88811" lon="5.11695">
        <ele>663.89</ele>
        <time>2017-11-15T15:41:51.000Z</time>
      </trkpt>
      <trkpt lat="44.88809" lon="5.1167">
        <ele>658.1</ele>
        <time>2017-11-15T15:42:24.000Z</time>
      </trkpt>
      <trkpt lat="44.88803" lon="5.11643">
        <ele>652.44</ele>
        <time>2017-11-15T15:42:48.000Z</time>
      </trkpt>
      <trkpt lat="44.88807" lon="5.11618">
        <ele>648.53</ele>
        <time>2017-11-15T15:43:03.000Z</time>
      </trkpt>
      <trkpt lat="44.88809" lon="5.11591">
        <ele>644.9</ele>
        <time>2017-11-15T15:43:21.000Z</time>
      </trkpt>
      <trkpt lat="44.88817" lon="5.11567">
        <ele>643.43</ele>
        <time>2017-11-15T15:43:44.000Z</time>
      </trkpt>
      <trkpt lat="44.88816" lon="5.11542">
        <ele>640.59</ele>
        <time>2017-11-15T15:44:06.000Z</time>
      </trkpt>
      <trkpt lat="44.88824" lon="5.11519">
        <ele>639.78</ele>
        <time>2017-11-15T15:44:29.000Z</time>
      </trkpt>
      <trkpt lat="44.88834" lon="5.11496">
        <ele>638.62</ele>
        <time>2017-11-15T15:45:24.000Z</time>
      </trkpt>
      <trkpt lat="44.88847" lon="5.11477">
        <ele>636.98</ele>
        <time>2017-11-15T15:45:38.000Z</time>
      </trkpt>
      <trkpt lat="44.88858" lon="5.11456">
        <ele>635.08</ele>
        <time>2017-11-15T15:45:54.000Z</time>
      </trkpt>
      <trkpt lat="44.88876" lon="5.1146">
        <ele>636.79</ele>
        <time>2017-11-15T15:46:24.000Z</time>
      </trkpt>
      <trkpt lat="44.88894" lon="5.11466">
        <ele>637.2</ele>
        <time>2017-11-15T15:46:45.000Z</time>
      </trkpt>
      <trkpt lat="44.88911" lon="5.11453">
        <ele>638.07</ele>
        <time>2017-11-15T15:47:10.000Z</time>
      </trkpt>
      <trkpt lat="44.88929" lon="5.11451">
        <ele>638.72</ele>
        <time>2017-11-15T15:47:24.000Z</time>
      </trkpt>
      <trkpt lat="44.88946" lon="5.1144">
        <ele>640.56</ele>
        <time>2017-11-15T15:47:45.000Z</time>
      </trkpt>
      <trkpt lat="44.88962" lon="5.11423">
        <ele>643.98</ele>
        <time>2017-11-15T15:48:08.000Z</time>
      </trkpt>
      <trkpt lat="44.88983" lon="5.11412">
        <ele>646.41</ele>
        <time>2017-11-15T15:48:25.000Z</time>
      </trkpt>
      <trkpt lat="44.89001" lon="5.11407">
        <ele>647.33</ele>
        <time>2017-11-15T15:48:43.000Z</time>
      </trkpt>
      <trkpt lat="44.89017" lon="5.11396">
        <ele>648.97</ele>
        <time>2017-11-15T15:49:01.000Z</time>
      </trkpt>
      <trkpt lat="44.89034" lon="5.11387">
        <ele>649.17</ele>
        <time>2017-11-15T15:49:18.000Z</time>
      </trkpt>
      <trkpt lat="44.89051" lon="5.1137">
        <ele>650.13</ele>
        <time>2017-11-15T15:49:38.000Z</time>
      </trkpt>
      <trkpt lat="44.89065" lon="5.11352">
        <ele>649.88</ele>
        <time>2017-11-15T15:49:54.000Z</time>
      </trkpt>
      <trkpt lat="44.89073" lon="5.11329">
        <ele>649.97</ele>
        <time>2017-11-15T15:50:15.000Z</time>
      </trkpt>
      <trkpt lat="44.89088" lon="5.11313">
        <ele>646.79</ele>
        <time>2017-11-15T15:50:29.000Z</time>
      </trkpt>
      <trkpt lat="44.89099" lon="5.11292">
        <ele>643.87</ele>
        <time>2017-11-15T15:50:56.000Z</time>
      </trkpt>
      <trkpt lat="44.89097" lon="5.11266">
        <ele>643.96</ele>
        <time>2017-11-15T15:51:13.000Z</time>
      </trkpt>
      <trkpt lat="44.89099" lon="5.1124">
        <ele>641.81</ele>
        <time>2017-11-15T15:51:33.000Z</time>
      </trkpt>
      <trkpt lat="44.89094" lon="5.11215">
        <ele>640.38</ele>
        <time>2017-11-15T15:51:49.000Z</time>
      </trkpt>
      <trkpt lat="44.89094" lon="5.11187">
        <ele>636.06</ele>
        <time>2017-11-15T15:52:06.000Z</time>
      </trkpt>
      <trkpt lat="44.89105" lon="5.11167">
        <ele>630.27</ele>
        <time>2017-11-15T15:52:49.000Z</time>
      </trkpt>
      <trkpt lat="44.8912" lon="5.1115">
        <ele>624.83</ele>
        <time>2017-11-15T15:53:08.000Z</time>
      </trkpt>
      <trkpt lat="44.89131" lon="5.11128">
        <ele>619.72</ele>
        <time>2017-11-15T15:53:22.000Z</time>
      </trkpt>
      <trkpt lat="44.89141" lon="5.11107">
        <ele>615.63</ele>
        <time>2017-11-15T15:53:40.000Z</time>
      </trkpt>
      <trkpt lat="44.89154" lon="5.11088">
        <ele>612.51</ele>
        <time>2017-11-15T15:53:59.000Z</time>
      </trkpt>
      <trkpt lat="44.8917" lon="5.11075">
        <ele>610.97</ele>
        <time>2017-11-15T15:54:16.000Z</time>
      </trkpt>
      <trkpt lat="44.89189" lon="5.11073">
        <ele>611.78</ele>
        <time>2017-11-15T15:54:38.000Z</time>
      </trkpt>
      <trkpt lat="44.89203" lon="5.11056">
        <ele>611.3</ele>
        <time>2017-11-15T15:54:56.000Z</time>
      </trkpt>
      <trkpt lat="44.89219" lon="5.11043">
        <ele>611.52</ele>
        <time>2017-11-15T15:55:14.000Z</time>
      </trkpt>
      <trkpt lat="44.89229" lon="5.11022">
        <ele>610.32</ele>
        <time>2017-11-15T15:55:34.000Z</time>
      </trkpt>
      <trkpt lat="44.89241" lon="5.11">
        <ele>609.7</ele>
        <time>2017-11-15T15:55:52.000Z</time>
      </trkpt>
      <trkpt lat="44.89252" lon="5.1098">
        <ele>609.75</ele>
        <time>2017-11-15T15:56:11.000Z</time>
      </trkpt>
      <trkpt lat="44.89266" lon="5.10964">
        <ele>609.7</ele>
        <time>2017-11-15T15:56:24.000Z</time>
      </trkpt>
      <trkpt lat="44.89279" lon="5.10945">
        <ele>609.32</ele>
        <time>2017-11-15T15:56:47.000Z</time>
      </trkpt>
      <trkpt lat="44.89299" lon="5.1093">
        <ele>607.5</ele>
        <time>2017-11-15T15:57:14.000Z</time>
      </trkpt>
      <trkpt lat="44.89317" lon="5.10931">
        <ele>604.96</ele>
        <time>2017-11-15T15:57:19.000Z</time>
      </trkpt>
      <trkpt lat="44.89331" lon="5.10916">
        <ele>603.27</ele>
        <time>2017-11-15T15:57:39.000Z</time>
      </trkpt>
      <trkpt lat="44.8935" lon="5.10908">
        <ele>600.69</ele>
        <time>2017-11-15T15:57:57.000Z</time>
      </trkpt>
      <trkpt lat="44.89365" lon="5.10894">
        <ele>598.02</ele>
        <time>2017-11-15T15:58:18.000Z</time>
      </trkpt>
      <trkpt lat="44.89382" lon="5.10883">
        <ele>594.59</ele>
        <time>2017-11-15T15:58:35.000Z</time>
      </trkpt>
      <trkpt lat="44.89401" lon="5.10879">
        <ele>591.07</ele>
        <time>2017-11-15T15:58:55.000Z</time>
      </trkpt>
      <trkpt lat="44.8942" lon="5.10873">
        <ele>588.29</ele>
        <time>2017-11-15T15:59:11.000Z</time>
      </trkpt>
      <trkpt lat="44.89438" lon="5.10866">
        <ele>586.69</ele>
        <time>2017-11-15T15:59:31.000Z</time>
      </trkpt>
      <trkpt lat="44.89454" lon="5.10853">
        <ele>585.39</ele>
        <time>2017-11-15T15:59:54.000Z</time>
      </trkpt>
      <trkpt lat="44.89472" lon="5.10845">
        <ele>584.98</ele>
        <time>2017-11-15T16:00:16.000Z</time>
      </trkpt>
      <trkpt lat="44.89485" lon="5.10828">
        <ele>583.58</ele>
        <time>2017-11-15T16:00:37.000Z</time>
      </trkpt>
      <trkpt lat="44.89498" lon="5.1081">
        <ele>580.8</ele>
        <time>2017-11-15T16:00:59.000Z</time>
      </trkpt>
      <trkpt lat="44.89517" lon="5.10801">
        <ele>581.35</ele>
        <time>2017-11-15T16:01:20.000Z</time>
      </trkpt>
      <trkpt lat="44.8953" lon="5.10783">
        <ele>579.64</ele>
        <time>2017-11-15T16:01:43.000Z</time>
      </trkpt>
      <trkpt lat="44.8954" lon="5.10762">
        <ele>577.05</ele>
        <time>2017-11-15T16:02:01.000Z</time>
      </trkpt>
      <trkpt lat="44.89548" lon="5.10739">
        <ele>574.24</ele>
        <time>2017-11-15T16:02:30.000Z</time>
      </trkpt>
      <trkpt lat="44.89555" lon="5.10715">
        <ele>570.68</ele>
        <time>2017-11-15T16:02:50.000Z</time>
      </trkpt>
      <trkpt lat="44.89558" lon="5.1069">
        <ele>564.87</ele>
        <time>2017-11-15T16:03:04.000Z</time>
      </trkpt>
      <trkpt lat="44.89564" lon="5.10665">
        <ele>560.41</ele>
        <time>2017-11-15T16:03:22.000Z</time>
      </trkpt>
      <trkpt lat="44.89579" lon="5.10648">
        <ele>559.82</ele>
        <time>2017-11-15T16:03:46.000Z</time>
      </trkpt>
      <trkpt lat="44.89589" lon="5.10626">
        <ele>555.73</ele>
        <time>2017-11-15T16:04:19.000Z</time>
      </trkpt>
      <trkpt lat="44.896" lon="5.10606">
        <ele>550.94</ele>
        <time>2017-11-15T16:04:36.000Z</time>
      </trkpt>
      <trkpt lat="44.89616" lon="5.10593">
        <ele>547.91</ele>
        <time>2017-11-15T16:04:57.000Z</time>
      </trkpt>
      <trkpt lat="44.89624" lon="5.10568">
        <ele>542.46</ele>
        <time>2017-11-15T16:05:21.000Z</time>
      </trkpt>
      <trkpt lat="44.89637" lon="5.10549">
        <ele>539.46</ele>
        <time>2017-11-15T16:05:41.000Z</time>
      </trkpt>
      <trkpt lat="44.89648" lon="5.10529">
        <ele>537.47</ele>
        <time>2017-11-15T16:06:12.000Z</time>
      </trkpt>
      <trkpt lat="44.89655" lon="5.10505">
        <ele>535.34</ele>
        <time>2017-11-15T16:06:30.000Z</time>
      </trkpt>
      <trkpt lat="44.89655" lon="5.1048">
        <ele>532.18</ele>
        <time>2017-11-15T16:06:57.000Z</time>
      </trkpt>
      <trkpt lat="44.89658" lon="5.10454">
        <ele>529.25</ele>
        <time>2017-11-15T16:07:17.000Z</time>
      </trkpt>
      <trkpt lat="44.89666" lon="5.1043">
        <ele>526.71</ele>
        <time>2017-11-15T16:07:36.000Z</time>
      </trkpt>
      <trkpt lat="44.89677" lon="5.10408">
        <ele>523.66</ele>
        <time>2017-11-15T16:07:57.000Z</time>
      </trkpt>
      <trkpt lat="44.89691" lon="5.10392">
        <ele>521.72</ele>
        <time>2017-11-15T16:08:21.000Z</time>
      </trkpt>
      <trkpt lat="44.89703" lon="5.10372">
        <ele>518.58</ele>
        <time>2017-11-15T16:08:41.000Z</time>
      </trkpt>
      <trkpt lat="44.89719" lon="5.1036">
        <ele>518.55</ele>
        <time>2017-11-15T16:09:07.000Z</time>
      </trkpt>
      <trkpt lat="44.89728" lon="5.10336">
        <ele>514.06</ele>
        <time>2017-11-15T16:09:37.000Z</time>
      </trkpt>
      <trkpt lat="44.89739" lon="5.10314">
        <ele>509.86</ele>
        <time>2017-11-15T16:10:11.000Z</time>
      </trkpt>
      <trkpt lat="44.89753" lon="5.10298">
        <ele>507.24</ele>
        <time>2017-11-15T16:10:32.000Z</time>
      </trkpt>
      <trkpt lat="44.89768" lon="5.10283">
        <ele>504.68</ele>
        <time>2017-11-15T16:10:58.000Z</time>
      </trkpt>
      <trkpt lat="44.89781" lon="5.10264">
        <ele>500.59</ele>
        <time>2017-11-15T16:11:16.000Z</time>
      </trkpt>
      <trkpt lat="44.89799" lon="5.10256">
        <ele>501.04</ele>
        <time>2017-11-15T16:11:37.000Z</time>
      </trkpt>
      <trkpt lat="44.89814" lon="5.1024">
        <ele>498.58</ele>
        <time>2017-11-15T16:12:01.000Z</time>
      </trkpt>
      <trkpt lat="44.89827" lon="5.10222">
        <ele>494.31</ele>
        <time>2017-11-15T16:12:27.000Z</time>
      </trkpt>
      <trkpt lat="44.89836" lon="5.10198">
        <ele>488.14</ele>
        <time>2017-11-15T16:12:44.000Z</time>
      </trkpt>
      <trkpt lat="44.8985" lon="5.10183">
        <ele>484.36</ele>
        <time>2017-11-15T16:13:08.000Z</time>
      </trkpt>
      <trkpt lat="44.8986" lon="5.10161">
        <ele>480.53</ele>
        <time>2017-11-15T16:14:00.000Z</time>
      </trkpt>
      <trkpt lat="44.89859" lon="5.10135">
        <ele>476.7</ele>
        <time>2017-11-15T16:14:23.000Z</time>
      </trkpt>
      <trkpt lat="44.89861" lon="5.10109">
        <ele>473.41</ele>
        <time>2017-11-15T16:15:00.000Z</time>
      </trkpt>
      <trkpt lat="44.89862" lon="5.10083">
        <ele>470.03</ele>
        <time>2017-11-15T16:15:27.000Z</time>
      </trkpt>
      <trkpt lat="44.89863" lon="5.10057">
        <ele>466.49</ele>
        <time>2017-11-15T16:15:49.000Z</time>
      </trkpt>
      <trkpt lat="44.89864" lon="5.1003">
        <ele>463.09</ele>
        <time>2017-11-15T16:16:15.000Z</time>
      </trkpt>
      <trkpt lat="44.89865" lon="5.10005">
        <ele>459.05</ele>
        <time>2017-11-15T16:16:39.000Z</time>
      </trkpt>
      <trkpt lat="44.89863" lon="5.09979">
        <ele>453.69</ele>
        <time>2017-11-15T16:17:11.000Z</time>
      </trkpt>
      <trkpt lat="44.89855" lon="5.09956">
        <ele>444.79</ele>
        <time>2017-11-15T16:18:07.000Z</time>
      </trkpt>
      <trkpt lat="44.89849" lon="5.0993">
        <ele>436.4</ele>
        <time>2017-11-15T16:18:25.000Z</time>
      </trkpt>
      <trkpt lat="44.89858" lon="5.09907">
        <ele>435.53</ele>
        <time>2017-11-15T16:18:41.000Z</time>
      </trkpt>
      <trkpt lat="44.89865" lon="5.09882">
        <ele>432.06</ele>
        <time>2017-11-15T16:20:08.000Z</time>
      </trkpt>
      <trkpt lat="44.89867" lon="5.09856">
        <ele>425.65</ele>
        <time>2017-11-15T16:20:34.000Z</time>
      </trkpt>
      <trkpt lat="44.89868" lon="5.0983">
        <ele>418.76</ele>
        <time>2017-11-15T16:20:52.000Z</time>
      </trkpt>
      <trkpt lat="44.89878" lon="5.09808">
        <ele>417.84</ele>
        <time>2017-11-15T16:21:11.000Z</time>
      </trkpt>
      <trkpt lat="44.8989" lon="5.09788">
        <ele>417.07</ele>
        <time>2017-11-15T16:21:30.000Z</time>
      </trkpt>
      <trkpt lat="44.899" lon="5.09767">
        <ele>414.82</ele>
        <time>2017-11-15T16:21:45.000Z</time>
      </trkpt>
      <trkpt lat="44.89914" lon="5.09749">
        <ele>413.37</ele>
        <time>2017-11-15T16:22:03.000Z</time>
      </trkpt>
      <trkpt lat="44.89927" lon="5.09729">
        <ele>410.23</ele>
        <time>2017-11-15T16:22:24.000Z</time>
      </trkpt>
      <trkpt lat="44.89932" lon="5.09703">
        <ele>404.98</ele>
        <time>2017-11-15T16:22:59.000Z</time>
      </trkpt>
      <trkpt lat="44.89938" lon="5.09679">
        <ele>400.6</ele>
        <time>2017-11-15T16:23:19.000Z</time>
      </trkpt>
      <trkpt lat="44.89947" lon="5.09657">
        <ele>397.26</ele>
        <time>2017-11-15T16:23:46.000Z</time>
      </trkpt>
      <trkpt lat="44.89951" lon="5.09632">
        <ele>393.28</ele>
        <time>2017-11-15T16:24:09.000Z</time>
      </trkpt>
      <trkpt lat="44.89936" lon="5.09615">
        <ele>389.54</ele>
        <time>2017-11-15T16:24:36.000Z</time>
      </trkpt>
      <trkpt lat="44.8994" lon="5.0959">
        <ele>386.55</ele>
        <time>2017-11-15T16:25:09.000Z</time>
      </trkpt>
      <trkpt lat="44.89939" lon="5.09564">
        <ele>383.84</ele>
        <time>2017-11-15T16:25:34.000Z</time>
      </trkpt>
      <trkpt lat="44.89948" lon="5.09542">
        <ele>382.67</ele>
        <time>2017-11-15T16:25:52.000Z</time>
      </trkpt>
      <trkpt lat="44.89936" lon="5.09521">
        <ele>380.81</ele>
        <time>2017-11-15T16:26:16.000Z</time>
      </trkpt>
      <trkpt lat="44.8992" lon="5.09508">
        <ele>379.5</ele>
        <time>2017-11-15T16:28:09.000Z</time>
      </trkpt>
      <trkpt lat="44.89922" lon="5.09507">
        <ele>379.52</ele>
        <time>2017-11-15T16:28:50.000Z</time>
      </trkpt>
    </trkseg>
  </trk>
</gpx>